Saint John Plt, Maine
Current Conditions -  °F | °C
As of 4:53 PM on Tuesday 25 Nov 2014 (Local Time) from KFVE Reporting Station
Overcast Overcast  
Wind Chill: 32°   Ceiling: 6000
Heat Index: 40°   Visibility: 10mi
Dew Point: 26°   Wind: 15mph
Humidity: 58%   Direction: 250°WSW
Pressure: 29.74"   Gusts: 31mph
Location:  47.0224°N, 68.6923°W
Report Text: KFVE 252153Z AUTO 25013G27KT 10SM SCT043 OVC060 04/M03 A2974 RMK AO2 PK WND 25028/2136 SLP073 T00441033
Loading
Personal Weather Stations






























Interactive Weather Map New forecast layout! Learn more

10-Day Weather Forecast

Advertisements
Track Severe Weather on mobile